createdAt,value
2018-03-28T00:01:28.023Z,24.50
2018-03-28T00:03:54.164Z,23.10
2018-03-28T00:06:20.201Z,26.13
2018-03-28T00:08:46.284Z,26.23
2018-03-28T00:11:12.488Z,18.77
2018-03-28T00:13:38.539Z,21.00
2018-03-28T00:16:04.720Z,20.37
2018-03-28T00:18:30.847Z,20.43
2018-03-28T00:20:56.908Z,21.97
2018-03-28T00:23:23.010Z,23.10
2018-03-28T00:25:49.009Z,19.23
2018-03-28T00:28:15.053Z,19.70
2018-03-28T00:30:41.097Z,19.93
2018-03-28T00:33:07.139Z,22.30
2018-03-28T00:35:33.224Z,20.00
2018-03-28T00:37:59.263Z,19.17
2018-03-28T00:40:25.671Z,21.10
2018-03-28T00:42:51.702Z,20.77
2018-03-28T00:45:18.628Z,20.47
2018-03-28T00:47:44.671Z,20.87
2018-03-28T00:50:10.750Z,20.27
2018-03-28T00:52:36.822Z,20.63
2018-03-28T00:55:02.905Z,21.37
2018-03-28T00:57:29.620Z,21.40
2018-03-28T00:59:55.652Z,19.67
2018-03-28T01:02:21.990Z,20.13
2018-03-28T01:04:48.036Z,17.70
2018-03-28T01:07:14.095Z,16.40
2018-03-28T01:09:40.211Z,20.27
2018-03-28T01:12:06.267Z,20.60
2018-03-28T01:14:32.381Z,21.20
2018-03-28T01:16:58.445Z,20.40
2018-03-28T01:19:24.656Z,18.40
2018-03-28T01:21:50.667Z,16.33
2018-03-28T01:24:16.699Z,14.50
2018-03-28T01:26:42.730Z,19.23
2018-03-28T01:29:08.888Z,18.67
2018-03-28T01:31:34.929Z,19.03
2018-03-28T01:34:00.967Z,18.67
2018-03-28T01:36:27.048Z,21.50
2018-03-28T01:38:53.124Z,18.47
2018-03-28T01:41:19.186Z,18.17
2018-03-28T01:43:45.234Z,18.53
2018-03-28T01:46:11.264Z,16.90
2018-03-28T01:48:37.352Z,17.60
2018-03-28T01:51:03.375Z,13.07
2018-03-28T01:53:29.407Z,15.60
2018-03-28T01:55:55.567Z,14.90
2018-03-28T01:58:21.600Z,15.53
2018-03-28T02:00:47.672Z,14.90
2018-03-28T02:03:13.704Z,15.27
2018-03-28T02:05:39.975Z,16.87
2018-03-28T02:08:06.270Z,15.83
2018-03-28T02:10:32.318Z,15.37
2018-03-28T02:12:58.452Z,15.80
2018-03-28T02:15:24.527Z,14.03
2018-03-28T02:17:50.623Z,13.17
2018-03-28T02:20:16.822Z,14.43
2018-03-28T02:22:42.905Z,17.17
2018-03-28T02:25:09.000Z,16.33
2018-03-28T02:27:35.026Z,15.27
2018-03-28T02:30:01.427Z,17.17
2018-03-28T02:32:28.478Z,15.40
2018-03-28T02:34:54.788Z,15.03
2018-03-28T02:37:20.823Z,15.70
2018-03-28T02:39:46.863Z,16.60
2018-03-28T02:42:12.948Z,15.93
2018-03-28T02:44:39.057Z,16.90
2018-03-28T02:47:05.112Z,16.27
2018-03-28T02:49:31.224Z,17.00
2018-03-28T02:51:57.309Z,14.80
2018-03-28T02:54:23.352Z,16.70
2018-03-28T02:56:49.589Z,15.73
2018-03-28T02:59:15.665Z,14.23
2018-03-28T03:01:41.900Z,13.60
2018-03-28T03:04:07.976Z,14.30
2018-03-28T03:06:34.084Z,14.73
2018-03-28T03:09:00.116Z,13.07
2018-03-28T03:11:26.443Z,18.33
2018-03-28T03:13:52.489Z,17.13
2018-03-28T03:16:18.547Z,16.43
2018-03-28T03:18:44.615Z,16.90
2018-03-28T03:21:10.830Z,16.33
2018-03-28T03:23:36.869Z,15.20
2018-03-28T03:26:03.094Z,16.20
2018-03-28T03:28:29.116Z,17.57
2018-03-28T03:30:55.288Z,17.17
2018-03-28T03:33:21.372Z,15.70
2018-03-28T03:35:47.419Z,13.00
2018-03-28T03:38:14.039Z,16.33
2018-03-28T03:40:40.081Z,16.97
2018-03-28T03:43:06.346Z,17.83
2018-03-28T03:45:32.395Z,18.43
2018-03-28T03:47:58.436Z,18.10
2018-03-28T03:50:24.468Z,18.33
2018-03-28T03:52:50.516Z,19.40
2018-03-28T03:55:16.564Z,16.47
2018-03-28T03:57:42.607Z,16.23
2018-03-28T04:00:08.610Z,16.87
2018-03-28T04:02:34.760Z,19.60
2018-03-28T04:05:00.879Z,20.33
2018-03-28T04:07:26.954Z,20.60
2018-03-28T04:09:53.095Z,15.83
2018-03-28T04:12:19.165Z,20.47
2018-03-28T04:14:45.281Z,16.87
2018-03-28T04:17:11.377Z,20.83
2018-03-28T04:19:37.430Z,21.20
2018-03-28T04:22:03.485Z,20.20
2018-03-28T04:24:29.525Z,17.50
2018-03-28T04:26:55.672Z,20.87
2018-03-28T04:29:21.741Z,20.53
2018-03-28T04:31:47.992Z,21.63
2018-03-28T04:34:14.007Z,19.17
2018-03-28T04:36:40.126Z,17.00
2018-03-28T04:39:06.139Z,15.43
2018-03-28T04:41:32.243Z,17.47
2018-03-28T04:43:58.278Z,20.63
2018-03-28T04:46:24.304Z,19.57
2018-03-28T04:48:50.372Z,20.20
2018-03-28T04:51:16.597Z,17.77
2018-03-28T04:53:42.642Z,20.40
2018-03-28T04:56:08.750Z,20.13
2018-03-28T04:58:35.332Z,16.43
2018-03-28T05:01:01.981Z,20.67
2018-03-28T05:03:28.303Z,20.83
2018-03-28T05:05:54.784Z,20.67
2018-03-28T05:08:21.307Z,18.70
2018-03-28T05:10:47.684Z,19.30
2018-03-28T05:13:14.094Z,22.53
2018-03-28T05:15:40.692Z,21.13
2018-03-28T05:18:06.939Z,21.27
2018-03-28T05:20:33.250Z,18.27
2018-03-28T05:22:59.894Z,19.30
2018-03-28T05:25:26.232Z,21.97
2018-03-28T05:27:52.470Z,21.70
2018-03-28T05:30:18.903Z,16.87
2018-03-28T05:32:45.277Z,21.30
2018-03-28T05:35:11.459Z,19.20
2018-03-28T05:37:37.794Z,21.60
2018-03-28T05:40:04.348Z,19.50
2018-03-28T05:42:30.709Z,22.10
2018-03-28T05:44:56.986Z,23.33
2018-03-28T05:47:23.311Z,17.00
2018-03-28T05:49:49.402Z,20.63
2018-03-28T05:52:15.601Z,19.13
2018-03-28T05:54:41.623Z,20.50
2018-03-28T05:57:07.790Z,22.63
2018-03-28T05:59:34.233Z,22.47
2018-03-28T06:02:01.248Z,22.03
2018-03-28T06:04:27.336Z,22.20
2018-03-28T06:06:53.493Z,22.27
2018-03-28T06:09:19.774Z,17.63
2018-03-28T06:11:45.986Z,22.77
2018-03-28T06:14:12.140Z,23.10
2018-03-28T06:16:38.212Z,22.83
2018-03-28T06:19:04.515Z,25.77
2018-03-28T06:21:30.677Z,21.67
2018-03-28T06:23:56.810Z,17.87
2018-03-28T06:26:22.848Z,21.80
2018-03-28T06:28:49.063Z,22.13
2018-03-28T06:31:15.112Z,20.30
2018-03-28T06:33:41.286Z,24.67
2018-03-28T06:36:07.337Z,24.23
2018-03-28T06:38:33.665Z,21.13
2018-03-28T06:40:59.735Z,24.87
2018-03-28T06:43:25.783Z,24.17
2018-03-28T06:45:51.861Z,22.03
2018-03-28T06:48:17.950Z,22.47
2018-03-28T06:50:44.214Z,18.80
2018-03-28T06:53:10.251Z,22.90
2018-03-28T06:55:36.415Z,21.50
2018-03-28T06:58:02.551Z,24.70
2018-03-28T07:00:28.585Z,25.77
2018-03-28T07:02:54.651Z,25.10
2018-03-28T07:05:20.669Z,26.00
2018-03-28T07:07:46.765Z,22.07
2018-03-28T07:10:13.004Z,27.67
2018-03-28T07:12:39.827Z,29.93
2018-03-28T07:15:05.867Z,21.77
2018-03-28T07:17:31.896Z,27.90
2018-03-28T07:19:57.953Z,22.33
2018-03-28T07:22:24.038Z,20.40
2018-03-28T07:24:50.084Z,26.20
2018-03-28T07:27:16.099Z,26.37
2018-03-28T07:29:42.299Z,25.63
2018-03-28T07:32:08.314Z,28.40
2018-03-28T07:34:34.379Z,28.53
2018-03-28T07:37:00.478Z,28.27
2018-03-28T07:39:26.514Z,27.37
2018-03-28T07:41:52.758Z,26.10
2018-03-28T07:44:18.774Z,27.00
2018-03-28T07:46:44.839Z,29.90
2018-03-28T07:49:10.866Z,26.07
2018-03-28T07:51:37.060Z,32.07
2018-03-28T07:54:03.140Z,31.37
2018-03-28T07:56:29.241Z,27.87
2018-03-28T07:58:55.293Z,29.77
2018-03-28T08:01:21.359Z,32.33
2018-03-28T08:03:47.448Z,28.43
2018-03-28T08:06:13.499Z,31.27
2018-03-28T08:08:39.554Z,29.73
2018-03-28T08:11:05.639Z,32.37
2018-03-28T08:13:31.761Z,29.27
2018-03-28T08:15:57.976Z,28.87
2018-03-28T08:18:24.373Z,29.63
2018-03-28T08:20:50.385Z,31.37
2018-03-28T08:23:16.465Z,27.00
2018-03-28T08:25:42.636Z,27.30
2018-03-28T08:28:08.845Z,31.03
2018-03-28T08:30:34.897Z,28.90
2018-03-28T08:33:01.142Z,22.53
2018-03-28T08:35:27.196Z,31.57
2018-03-28T08:37:53.408Z,32.07
2018-03-28T08:40:19.522Z,31.37
2018-03-28T08:42:45.760Z,29.47
2018-03-28T08:45:11.881Z,30.77
2018-03-28T08:47:37.928Z,31.13
2018-03-28T08:50:03.985Z,29.57
2018-03-28T08:52:30.076Z,29.07
2018-03-28T08:54:56.153Z,32.77
2018-03-28T08:57:22.221Z,28.57
2018-03-28T08:59:48.561Z,26.30
2018-03-28T09:02:14.591Z,31.33
2018-03-28T09:04:40.683Z,30.03
2018-03-28T09:07:06.710Z,26.33
2018-03-28T09:09:32.740Z,31.60
2018-03-28T09:11:58.881Z,29.10
2018-03-28T09:14:24.902Z,27.20
2018-03-28T09:16:50.963Z,31.23
2018-03-28T09:19:17.061Z,33.20
2018-03-28T09:21:43.085Z,31.07
2018-03-28T09:24:09.123Z,32.47
2018-03-28T09:26:35.189Z,29.20
2018-03-28T09:29:01.332Z,30.47
2018-03-28T09:31:27.389Z,30.40
2018-03-28T09:33:53.438Z,28.50
2018-03-28T09:36:19.503Z,28.23
2018-03-28T09:38:45.612Z,29.87
2018-03-28T09:41:11.701Z,31.90
2018-03-28T09:43:37.750Z,30.67
2018-03-28T09:46:03.864Z,29.37
2018-03-28T09:48:29.914Z,29.90
2018-03-28T09:50:55.977Z,28.00
2018-03-28T09:53:22.001Z,32.07
2018-03-28T09:55:48.213Z,28.40
2018-03-28T09:58:14.274Z,24.93
2018-03-28T10:00:40.346Z,25.90
2018-03-28T10:03:11.358Z,26.40
2018-03-28T10:05:38.487Z,29.03
2018-03-28T10:08:04.579Z,30.67
2018-03-28T10:10:30.886Z,29.00
2018-03-28T10:12:56.944Z,27.70
2018-03-28T10:15:23.505Z,32.40
2018-03-28T10:17:49.594Z,29.90
2018-03-28T10:20:15.732Z,27.83
2018-03-28T10:22:41.794Z,27.03
2018-03-28T10:25:07.923Z,31.97
2018-03-28T10:27:34.337Z,21.37
2018-03-28T10:30:00.387Z,28.67
2018-03-28T10:32:26.412Z,27.13
2018-03-28T10:34:52.426Z,21.67
2018-03-28T10:37:18.456Z,22.03
2018-03-28T10:39:44.516Z,30.80
2018-03-28T10:42:10.582Z,23.83
2018-03-28T10:44:36.662Z,26.93
2018-03-28T10:47:02.750Z,22.87
2018-03-28T10:49:28.836Z,26.10
2018-03-28T10:51:54.895Z,25.63
2018-03-28T10:54:20.960Z,23.17
2018-03-28T10:56:47.028Z,24.20
2018-03-28T10:59:13.056Z,22.53
2018-03-28T11:01:39.502Z,26.87
2018-03-28T11:04:05.687Z,24.77
2018-03-28T11:06:31.927Z,27.80
2018-03-28T11:08:57.988Z,24.63
2018-03-28T11:11:24.048Z,24.73
2018-03-28T11:13:50.216Z,25.37
2018-03-28T11:16:16.347Z,26.37
2018-03-28T11:18:42.445Z,24.47
2018-03-28T11:21:08.508Z,22.53
2018-03-28T11:23:34.702Z,24.50
2018-03-28T11:26:00.757Z,22.80
2018-03-28T11:28:26.776Z,25.40
2018-03-28T11:30:52.862Z,23.47
2018-03-28T11:33:19.054Z,26.00
2018-03-28T11:35:45.149Z,23.53
2018-03-28T11:38:11.168Z,23.00
2018-03-28T11:40:37.431Z,28.73
2018-03-28T11:43:03.469Z,28.03
2018-03-28T11:45:29.814Z,26.03
2018-03-28T11:47:55.885Z,20.50
2018-03-28T11:50:21.938Z,29.33
2018-03-28T11:52:47.995Z,22.33
2018-03-28T11:55:14.033Z,26.27
2018-03-28T11:57:40.247Z,22.37
2018-03-28T12:00:06.280Z,18.67
2018-03-28T12:02:32.389Z,26.13
2018-03-28T12:04:58.449Z,24.97
2018-03-28T12:07:24.536Z,25.70
2018-03-28T12:09:50.599Z,25.73
2018-03-28T12:12:16.683Z,25.43
2018-03-28T12:14:42.921Z,24.03
2018-03-28T12:17:09.020Z,26.37
2018-03-28T12:19:35.285Z,24.70
2018-03-28T12:22:01.346Z,20.33
2018-03-28T12:24:27.345Z,26.07
2018-03-28T12:26:53.436Z,23.03
2018-03-28T12:29:19.466Z,28.33
2018-03-28T12:31:45.707Z,26.13
2018-03-28T12:34:11.744Z,27.73
2018-03-28T12:36:37.812Z,24.67
2018-03-28T12:39:04.956Z,26.90
2018-03-28T12:41:31.208Z,26.90
2018-03-28T12:43:57.266Z,25.87
2018-03-28T12:46:23.391Z,22.23
2018-03-28T12:48:49.477Z,21.20
2018-03-28T12:51:15.536Z,31.03
2018-03-28T12:53:41.560Z,30.43
2018-03-28T12:56:07.633Z,31.03
2018-03-28T12:58:33.692Z,30.10
2018-03-28T13:00:59.927Z,31.13
2018-03-28T13:03:25.992Z,35.17
2018-03-28T13:05:52.167Z,31.70
2018-03-28T13:08:18.195Z,27.93
2018-03-28T13:10:44.413Z,33.37
2018-03-28T13:13:10.622Z,33.03
2018-03-28T13:15:36.725Z,33.23
2018-03-28T13:18:02.832Z,36.37
2018-03-28T13:20:28.920Z,36.63
2018-03-28T13:22:54.919Z,32.70
2018-03-28T13:25:20.987Z,33.43
2018-03-28T13:27:47.044Z,30.63
2018-03-28T13:30:13.110Z,34.47
2018-03-28T13:32:39.167Z,28.70
2018-03-28T13:35:05.263Z,36.57
2018-03-28T13:37:31.538Z,30.03
2018-03-28T13:39:57.580Z,31.80
2018-03-28T13:42:23.810Z,31.60
2018-03-28T13:44:49.861Z,32.37
2018-03-28T13:47:15.926Z,37.87
2018-03-28T13:49:42.091Z,34.80
2018-03-28T13:52:08.127Z,27.83
2018-03-28T13:54:34.348Z,31.97
2018-03-28T13:57:00.420Z,36.67
2018-03-28T13:59:26.484Z,35.73
2018-03-28T14:01:52.534Z,27.80
2018-03-28T14:04:18.775Z,29.67
2018-03-28T14:06:44.918Z,30.80
2018-03-28T14:09:10.946Z,30.67
2018-03-28T14:11:37.004Z,29.57
2018-03-28T14:14:03.044Z,32.27
2018-03-28T14:16:29.357Z,27.27
2018-03-28T14:18:55.396Z,31.07
2018-03-28T14:21:21.446Z,31.00
2018-03-28T14:23:47.482Z,27.33
2018-03-28T14:26:13.540Z,27.83
2018-03-28T14:28:39.743Z,29.83
2018-03-28T14:31:05.751Z,29.30
2018-03-28T14:33:31.941Z,23.90
2018-03-28T14:35:57.992Z,24.87
2018-03-28T14:38:24.074Z,30.73
2018-03-28T14:40:50.152Z,32.60
2018-03-28T14:43:16.231Z,32.03
2018-03-28T14:45:42.306Z,32.10
2018-03-28T14:48:08.376Z,26.40
2018-03-28T14:50:34.622Z,40.27
2018-03-28T14:53:00.644Z,33.70
2018-03-28T14:55:26.926Z,34.63
2018-03-28T14:57:52.961Z,34.13
2018-03-28T15:00:19.030Z,35.20
2018-03-28T15:02:45.078Z,34.67
2018-03-28T15:05:11.121Z,29.40
2018-03-28T15:07:37.187Z,31.30
2018-03-28T15:10:03.241Z,37.17
2018-03-28T15:12:29.344Z,33.47
2018-03-28T15:14:55.654Z,31.23
2018-03-28T15:17:21.848Z,34.73
2018-03-28T15:19:48.031Z,36.60
2018-03-28T15:22:14.056Z,36.17
2018-03-28T15:24:40.330Z,32.60
2018-03-28T15:27:06.423Z,37.07
2018-03-28T15:29:32.729Z,34.60
2018-03-28T15:31:58.815Z,34.30
2018-03-28T15:34:25.131Z,32.23
2018-03-28T15:36:51.213Z,36.43
2018-03-28T15:39:17.234Z,28.93
2018-03-28T15:41:43.381Z,24.87
2018-03-28T15:44:09.463Z,28.13
2018-03-28T15:46:35.539Z,31.80
2018-03-28T15:49:01.649Z,32.43
2018-03-28T15:51:27.908Z,33.13
2018-03-28T15:53:54.026Z,33.43
2018-03-28T15:56:20.128Z,30.67
2018-03-28T15:58:46.194Z,31.77
2018-03-28T16:01:12.306Z,29.37
2018-03-28T16:03:38.431Z,28.13
2018-03-28T16:06:04.588Z,30.67
2018-03-28T16:08:30.777Z,30.83
2018-03-28T16:10:57.090Z,31.97
2018-03-28T16:13:23.390Z,27.50
2018-03-28T16:15:49.478Z,28.73
2018-03-28T16:18:15.618Z,28.13
2018-03-28T16:20:41.704Z,30.30
2018-03-28T16:23:07.888Z,31.20
2018-03-28T16:25:34.606Z,30.90
2018-03-28T16:28:00.830Z,31.07
2018-03-28T16:30:26.881Z,35.47
2018-03-28T16:32:53.093Z,37.83
2018-03-28T16:35:19.886Z,29.40
2018-03-28T16:37:46.024Z,29.53
2018-03-28T16:40:12.128Z,33.87
2018-03-28T16:42:38.227Z,38.20
2018-03-28T16:45:04.299Z,28.13
2018-03-28T16:47:30.805Z,34.00
2018-03-28T16:49:56.959Z,39.03
2018-03-28T16:52:23.006Z,34.03
2018-03-28T16:54:49.071Z,35.03
2018-03-28T16:57:15.188Z,31.80
2018-03-28T16:59:41.258Z,32.30
2018-03-28T17:02:07.502Z,28.03
2018-03-28T17:04:33.639Z,35.30
2018-03-28T17:06:59.779Z,33.67
2018-03-28T17:09:25.927Z,34.97
2018-03-28T17:11:52.038Z,32.60
2018-03-28T17:14:18.289Z,31.03
2018-03-28T17:16:44.367Z,29.80
2018-03-28T17:19:10.751Z,32.27
2018-03-28T17:21:36.847Z,30.10
2018-03-28T17:24:03.148Z,27.80
2018-03-28T17:26:29.283Z,30.30
2018-03-28T17:28:55.729Z,29.13
2018-03-28T17:31:22.138Z,26.33
2018-03-28T17:33:48.900Z,30.80
2018-03-28T17:36:15.059Z,31.87
2018-03-28T17:38:41.081Z,28.33
2018-03-28T17:41:07.172Z,29.47
2018-03-28T17:43:33.324Z,30.87
2018-03-28T17:45:59.502Z,28.27
2018-03-28T17:48:25.577Z,27.27
2018-03-28T17:50:51.821Z,28.33
2018-03-28T17:53:17.931Z,29.27
2018-03-28T17:55:44.018Z,25.47
2018-03-28T17:58:10.117Z,25.77
2018-03-28T18:00:36.186Z,26.43
2018-03-28T18:03:02.461Z,25.97
2018-03-28T18:05:28.615Z,24.10
2018-03-28T18:07:54.734Z,28.00
2018-03-28T18:10:20.939Z,24.20
2018-03-28T18:12:47.043Z,25.10
2018-03-28T18:15:13.202Z,25.27
2018-03-28T18:17:39.371Z,26.97
2018-03-28T18:20:05.500Z,19.00
2018-03-28T18:22:31.614Z,27.17
2018-03-28T18:24:58.040Z,24.43
2018-03-28T18:27:24.279Z,19.20
2018-03-28T18:29:50.539Z,21.70
2018-03-28T18:32:16.643Z,25.43
2018-03-28T18:34:42.873Z,22.13
2018-03-28T18:37:09.746Z,19.77
2018-03-28T18:39:36.778Z,19.83
2018-03-28T18:42:02.922Z,22.07
2018-03-28T18:44:29.065Z,22.10
2018-03-28T18:46:55.427Z,21.87
2018-03-28T18:49:21.749Z,23.93
2018-03-28T18:51:47.826Z,22.23
2018-03-28T18:54:14.015Z,23.53
2018-03-28T18:56:40.087Z,23.40
2018-03-28T18:59:07.002Z,21.17
2018-03-28T19:01:33.161Z,20.43
2018-03-28T19:03:59.306Z,22.57
2018-03-28T19:06:25.442Z,20.97
2018-03-28T19:08:51.870Z,18.63
2018-03-28T19:11:17.954Z,20.03
2018-03-28T19:13:44.205Z,19.87
2018-03-28T19:16:11.422Z,19.60
2018-03-28T19:18:37.591Z,19.53
2018-03-28T19:21:03.679Z,21.03
2018-03-28T19:23:29.723Z,17.70
2018-03-28T19:25:55.886Z,18.23
2018-03-28T19:28:21.980Z,20.17
2018-03-28T19:30:48.638Z,18.17
2018-03-28T19:33:15.054Z,17.57
2018-03-28T19:35:41.124Z,19.07
2018-03-28T19:38:07.650Z,20.70
2018-03-28T19:40:33.813Z,18.27
2018-03-28T19:42:59.983Z,16.77
2018-03-28T19:45:26.113Z,18.43
2018-03-28T19:47:52.318Z,19.83
2018-03-28T19:50:19.020Z,19.73
2018-03-28T19:52:45.359Z,16.37
2018-03-28T19:55:11.452Z,17.83
2018-03-28T19:57:37.558Z,20.90
2018-03-28T20:00:06.619Z,21.43
2018-03-28T20:02:32.786Z,21.63
2018-03-28T20:04:58.865Z,19.80
2018-03-28T20:07:25.210Z,18.60
2018-03-28T20:09:52.368Z,18.33
2018-03-28T20:12:18.703Z,20.40
2018-03-28T20:14:45.007Z,19.97
2018-03-28T20:17:11.274Z,19.53
2018-03-28T20:19:37.401Z,18.63
2018-03-28T20:22:06.098Z,18.10
2018-03-28T20:24:33.438Z,20.17
2018-03-28T20:26:59.553Z,18.50
2018-03-28T20:29:25.762Z,21.57
2018-03-28T20:31:52.128Z,20.07
2018-03-28T20:34:18.451Z,21.23
2018-03-28T20:36:44.587Z,18.60
2018-03-28T20:39:10.744Z,21.43
2018-03-28T20:41:37.170Z,18.73
2018-03-28T20:44:03.470Z,19.33
2018-03-28T20:46:29.671Z,15.53
2018-03-28T20:48:55.736Z,18.73
2018-03-28T20:51:21.983Z,19.80
2018-03-28T20:53:48.271Z,18.43
2018-03-28T20:56:14.299Z,18.63
2018-03-28T20:58:40.565Z,18.73
2018-03-28T21:01:06.682Z,16.10
2018-03-28T21:03:32.822Z,15.83
2018-03-28T21:05:59.239Z,17.67
2018-03-28T21:08:25.395Z,18.13
2018-03-28T21:10:51.741Z,16.63
2018-03-28T21:13:17.842Z,19.30
2018-03-28T21:15:44.003Z,18.00
2018-03-28T21:18:10.349Z,17.83
2018-03-28T21:20:36.515Z,17.47
2018-03-28T21:23:02.617Z,19.47
2018-03-28T21:25:28.882Z,17.33
2018-03-28T21:27:54.943Z,16.40
2018-03-28T21:30:20.990Z,17.63
2018-03-28T21:32:47.138Z,16.83
2018-03-28T21:35:14.206Z,18.10
2018-03-28T21:37:41.412Z,12.53
2018-03-28T21:40:07.616Z,18.17
2018-03-28T21:42:33.651Z,17.10
2018-03-28T21:44:59.708Z,20.67
2018-03-28T21:47:25.786Z,19.83
2018-03-28T21:49:52.048Z,18.30
2018-03-28T21:52:18.165Z,20.77
2018-03-28T21:54:44.261Z,15.87
2018-03-28T21:57:10.299Z,17.13
2018-03-28T21:59:36.616Z,19.20
2018-03-28T22:02:02.712Z,17.37
2018-03-28T22:04:28.806Z,14.40
2018-03-28T22:06:54.915Z,20.27
2018-03-28T22:09:21.145Z,16.63
2018-03-28T22:11:47.225Z,16.07
2018-03-28T22:14:13.341Z,21.07
2018-03-28T22:16:39.614Z,22.43
2018-03-28T22:19:05.714Z,21.43
2018-03-28T22:21:31.887Z,17.47
2018-03-28T22:23:58.005Z,23.43
2018-03-28T22:26:24.025Z,23.07
2018-03-28T22:28:50.204Z,22.73
2018-03-28T22:31:16.234Z,24.30
2018-03-28T22:33:42.370Z,22.90
2018-03-28T22:36:08.480Z,26.00
2018-03-28T22:38:34.527Z,17.80
2018-03-28T22:41:00.655Z,26.80
2018-03-28T22:43:26.736Z,26.03
2018-03-28T22:45:52.802Z,22.43
2018-03-28T22:48:18.845Z,24.70
2018-03-28T22:50:44.895Z,24.07
2018-03-28T22:53:11.027Z,26.10
2018-03-28T22:55:37.022Z,25.87
2018-03-28T22:58:03.112Z,27.30
2018-03-28T23:00:29.192Z,27.67
2018-03-28T23:02:55.303Z,28.10
2018-03-28T23:05:21.360Z,27.50
2018-03-28T23:07:47.409Z,27.67
2018-03-28T23:10:13.451Z,29.60
2018-03-28T23:12:39.768Z,30.13
2018-03-28T23:15:05.899Z,28.70
2018-03-28T23:17:31.931Z,28.67
2018-03-28T23:19:57.966Z,30.43
2018-03-28T23:22:38.512Z,32.83
2018-03-28T23:25:04.568Z,28.80
2018-03-28T23:27:30.608Z,34.10
2018-03-28T23:29:56.646Z,32.80
2018-03-28T23:32:22.717Z,32.40
2018-03-28T23:34:48.920Z,31.97
2018-03-28T23:37:14.966Z,30.73
2018-03-28T23:39:41.056Z,22.33
2018-03-28T23:42:08.293Z,21.80
2018-03-28T23:44:34.362Z,15.97
2018-03-28T23:47:00.390Z,15.20
2018-03-28T23:49:26.621Z,15.23
2018-03-28T23:51:52.697Z,14.67
2018-03-28T23:54:18.853Z,15.23
2018-03-28T23:56:44.923Z,16.20
2018-03-28T23:59:10.951Z,16.07
